sensor_id;sensor_type;location;lat;lon;timestamp;pressure;altitude;pressure_sealevel;temperature;humidity
75747;BME280;70632;52.232;21.038;2023-08-30T00:00:41;99095.53;;;22.05;84.82
75747;BME280;70632;52.232;21.038;2023-08-30T00:03:26;99119.22;;;21.75;86.31
75747;BME280;70632;52.232;21.038;2023-08-30T00:05:52;99117.34;;;21.76;87.06
75747;BME280;70632;52.232;21.038;2023-08-30T00:08:18;99111.44;;;21.90;85.74
75747;BME280;70632;52.232;21.038;2023-08-30T00:10:45;99116.50;;;22.12;84.32
75747;BME280;70632;52.232;21.038;2023-08-30T00:13:11;99102.94;;;21.75;87.06
75747;BME280;70632;52.232;21.038;2023-08-30T00:15:38;99101.28;;;21.65;86.91
75747;BME280;70632;52.232;21.038;2023-08-30T00:18:03;99094.03;;;21.83;86.97
75747;BME280;70632;52.232;21.038;2023-08-30T00:20:29;99091.72;;;21.98;85.95
75747;BME280;70632;52.232;21.038;2023-08-30T00:22:55;99114.97;;;21.73;86.71
75747;BME280;70632;52.232;21.038;2023-08-30T00:25:21;99133.84;;;21.65;87.67
75747;BME280;70632;52.232;21.038;2023-08-30T00:27:46;99133.34;;;21.79;87.33
75747;BME280;70632;52.232;21.038;2023-08-30T00:30:12;99128.81;;;21.23;88.86
75747;BME280;70632;52.232;21.038;2023-08-30T00:32:38;99136.13;;;21.60;87.75
75747;BME280;70632;52.232;21.038;2023-08-30T00:35:04;99130.22;;;21.37;88.76
75747;BME280;70632;52.232;21.038;2023-08-30T00:37:30;99134.53;;;21.67;88.13
75747;BME280;70632;52.232;21.038;2023-08-30T00:39:55;99132.00;;;22.02;84.96
75747;BME280;70632;52.232;21.038;2023-08-30T00:42:21;99127.81;;;22.08;84.78
75747;BME280;70632;52.232;21.038;2023-08-30T00:44:47;99135.50;;;21.75;86.09
75747;BME280;70632;52.232;21.038;2023-08-30T00:47:12;99136.88;;;21.89;85.84
75747;BME280;70632;52.232;21.038;2023-08-30T00:49:40;99145.72;;;21.91;85.84
75747;BME280;70632;52.232;21.038;2023-08-30T00:52:07;99136.06;;;21.79;87.16
75747;BME280;70632;52.232;21.038;2023-08-30T00:54:35;99132.00;;;22.02;84.76
75747;BME280;70632;52.232;21.038;2023-08-30T00:57:01;99147.50;;;21.82;85.60
75747;BME280;70632;52.232;21.038;2023-08-30T00:59:31;99155.84;;;21.62;86.96
75747;BME280;70632;52.232;21.038;2023-08-30T01:01:58;99160.47;;;21.32;87.97
75747;BME280;70632;52.232;21.038;2023-08-30T01:04:25;99168.63;;;21.32;88.38
75747;BME280;70632;52.232;21.038;2023-08-30T01:06:51;99167.63;;;21.24;88.55
75747;BME280;70632;52.232;21.038;2023-08-30T01:09:17;99165.09;;;21.22;88.08
75747;BME280;70632;52.232;21.038;2023-08-30T01:11:54;99173.91;;;20.86;88.66
75747;BME280;70632;52.232;21.038;2023-08-30T01:14:38;99181.88;;;20.87;88.53
75747;BME280;70632;52.232;21.038;2023-08-30T01:17:06;99180.31;;;20.66;89.16
75747;BME280;70632;52.232;21.038;2023-08-30T01:19:51;99180.75;;;20.99;86.92
75747;BME280;70632;52.232;21.038;2023-08-30T01:28:05;99204.44;;;20.88;86.46
75747;BME280;70632;52.232;21.038;2023-08-30T01:30:36;99190.72;;;20.99;85.28
75747;BME280;70632;52.232;21.038;2023-08-30T01:33:04;99197.16;;;21.36;83.89
75747;BME280;70632;52.232;21.038;2023-08-30T01:35:32;99191.13;;;21.42;82.64
75747;BME280;70632;52.232;21.038;2023-08-30T01:37:59;99193.44;;;21.37;82.59
75747;BME280;70632;52.232;21.038;2023-08-30T01:40:27;99188.41;;;21.62;81.79
75747;BME280;70632;52.232;21.038;2023-08-30T01:42:55;99191.00;;;21.44;81.88
75747;BME280;70632;52.232;21.038;2023-08-30T01:45:23;99194.09;;;21.59;79.98
75747;BME280;70632;52.232;21.038;2023-08-30T01:47:49;99195.56;;;21.43;80.88
75747;BME280;70632;52.232;21.038;2023-08-30T01:50:19;99200.38;;;21.69;80.05
75747;BME280;70632;52.232;21.038;2023-08-30T01:52:45;99198.53;;;21.60;79.90
75747;BME280;70632;52.232;21.038;2023-08-30T01:55:14;99194.44;;;21.36;79.72
75747;BME280;70632;52.232;21.038;2023-08-30T01:57:40;99188.75;;;21.20;80.39
75747;BME280;70632;52.232;21.038;2023-08-30T02:00:06;99178.59;;;21.03;80.26
75747;BME280;70632;52.232;21.038;2023-08-30T02:02:33;99184.19;;;21.01;80.62
75747;BME280;70632;52.232;21.038;2023-08-30T02:04:59;99185.75;;;21.04;81.08
75747;BME280;70632;52.232;21.038;2023-08-30T02:10:08;99174.91;;;20.85;80.66
75747;BME280;70632;52.232;21.038;2023-08-30T02:12:41;99172.19;;;21.04;79.73
75747;BME280;70632;52.232;21.038;2023-08-30T02:15:09;99171.06;;;20.87;80.29
75747;BME280;70632;52.232;21.038;2023-08-30T02:17:37;99155.06;;;21.03;79.86
75747;BME280;70632;52.232;21.038;2023-08-30T02:20:05;99150.44;;;21.42;78.33
75747;BME280;70632;52.232;21.038;2023-08-30T02:22:31;99144.09;;;21.05;80.08
75747;BME280;70632;52.232;21.038;2023-08-30T02:24:57;99135.69;;;20.89;81.00
75747;BME280;70632;52.232;21.038;2023-08-30T02:27:23;99135.66;;;21.08;79.39
75747;BME280;70632;52.232;21.038;2023-08-30T02:29:49;99121.72;;;21.13;80.18
75747;BME280;70632;52.232;21.038;2023-08-30T02:32:15;99105.13;;;21.25;79.07
75747;BME280;70632;52.232;21.038;2023-08-30T02:34:49;99106.72;;;21.18;78.64
75747;BME280;70632;52.232;21.038;2023-08-30T02:37:15;99112.81;;;21.11;79.45
75747;BME280;70632;52.232;21.038;2023-08-30T02:39:41;99103.22;;;21.82;76.52
75747;BME280;70632;52.232;21.038;2023-08-30T02:42:06;99100.84;;;21.69;76.87
75747;BME280;70632;52.232;21.038;2023-08-30T02:44:32;99091.63;;;21.80;76.15
75747;BME280;70632;52.232;21.038;2023-08-30T02:46:57;99094.66;;;21.77;75.68
75747;BME280;70632;52.232;21.038;2023-08-30T02:49:23;99076.31;;;21.88;75.26
75747;BME280;70632;52.232;21.038;2023-08-30T02:51:49;99071.19;;;21.85;75.13
75747;BME280;70632;52.232;21.038;2023-08-30T02:54:15;99065.13;;;22.01;74.59
75747;BME280;70632;52.232;21.038;2023-08-30T02:56:41;99073.72;;;21.87;74.65
75747;BME280;70632;52.232;21.038;2023-08-30T02:59:09;99071.75;;;21.89;74.67
75747;BME280;70632;52.232;21.038;2023-08-30T03:01:35;99071.53;;;21.73;75.32
75747;BME280;70632;52.232;21.038;2023-08-30T03:04:01;99062.75;;;21.88;75.11
75747;BME280;70632;52.232;21.038;2023-08-30T03:06:27;99058.84;;;22.01;74.83
75747;BME280;70632;52.232;21.038;2023-08-30T03:08:55;99074.34;;;21.81;75.12
75747;BME280;70632;52.232;21.038;2023-08-30T03:11:21;99067.13;;;21.99;74.66
75747;BME280;70632;52.232;21.038;2023-08-30T03:13:47;99067.16;;;21.89;74.97
75747;BME280;70632;52.232;21.038;2023-08-30T03:16:14;99075.63;;;21.86;74.99
75747;BME280;70632;52.232;21.038;2023-08-30T03:18:41;99080.25;;;21.39;76.72
75747;BME280;70632;52.232;21.038;2023-08-30T03:21:07;99084.66;;;21.77;75.38
75747;BME280;70632;52.232;21.038;2023-08-30T03:23:33;99079.47;;;21.84;75.11
75747;BME280;70632;52.232;21.038;2023-08-30T03:26:14;99076.06;;;22.09;74.16
75747;BME280;70632;52.232;21.038;2023-08-30T03:28:42;99084.81;;;22.03;73.74
75747;BME280;70632;52.232;21.038;2023-08-30T03:31:16;99087.75;;;21.18;77.02
75747;BME280;70632;52.232;21.038;2023-08-30T03:33:42;99080.75;;;20.96;78.99
75747;BME280;70632;52.232;21.038;2023-08-30T03:36:10;99077.19;;;20.96;78.54
75747;BME280;70632;52.232;21.038;2023-08-30T03:38:36;99076.06;;;21.18;77.42
75747;BME280;70632;52.232;21.038;2023-08-30T03:41:03;99090.06;;;20.75;79.14
75747;BME280;70632;52.232;21.038;2023-08-30T03:43:30;99089.16;;;21.03;78.37
75747;BME280;70632;52.232;21.038;2023-08-30T03:45:56;99099.88;;;20.95;78.72
75747;BME280;70632;52.232;21.038;2023-08-30T03:48:22;99105.03;;;20.40;81.27
75747;BME280;70632;52.232;21.038;2023-08-30T03:50:48;99096.47;;;20.35;82.04
75747;BME280;70632;52.232;21.038;2023-08-30T03:53:14;99089.22;;;20.36;82.01
75747;BME280;70632;52.232;21.038;2023-08-30T03:55:40;99099.81;;;20.18;82.39
75747;BME280;70632;52.232;21.038;2023-08-30T03:58:06;99097.47;;;20.73;79.89
75747;BME280;70632;52.232;21.038;2023-08-30T04:00:32;99095.63;;;20.64;80.02
75747;BME280;70632;52.232;21.038;2023-08-30T04:02:57;99092.59;;;20.95;78.42
75747;BME280;70632;52.232;21.038;2023-08-30T04:05:23;99096.63;;;20.63;79.64
75747;BME280;70632;52.232;21.038;2023-08-30T04:07:49;99099.34;;;20.82;79.31
75747;BME280;70632;52.232;21.038;2023-08-30T04:10:15;99097.16;;;20.95;78.38
75747;BME280;70632;52.232;21.038;2023-08-30T04:12:41;99101.78;;;20.66;80.35
75747;BME280;70632;52.232;21.038;2023-08-30T04:15:07;99106.19;;;20.76;79.66
75747;BME280;70632;52.232;21.038;2023-08-30T04:17:32;99093.78;;;20.74;79.65
75747;BME280;70632;52.232;21.038;2023-08-30T04:19:58;99082.78;;;20.85;79.22
75747;BME280;70632;52.232;21.038;2023-08-30T04:22:24;99088.63;;;20.71;79.52
75747;BME280;70632;52.232;21.038;2023-08-30T04:24:49;99078.09;;;20.29;81.15
75747;BME280;70632;52.232;21.038;2023-08-30T04:27:15;99085.34;;;20.38;81.90
75747;BME280;70632;52.232;21.038;2023-08-30T04:29:41;99087.94;;;20.49;80.96
75747;BME280;70632;52.232;21.038;2023-08-30T04:32:10;99088.59;;;21.09;78.56
75747;BME280;70632;52.232;21.038;2023-08-30T04:34:37;99091.44;;;21.08;78.14
75747;BME280;70632;52.232;21.038;2023-08-30T04:37:03;99088.16;;;21.04;77.79
75747;BME280;70632;52.232;21.038;2023-08-30T04:39:29;99084.78;;;20.64;79.67
75747;BME280;70632;52.232;21.038;2023-08-30T04:41:55;99092.78;;;20.46;80.76
75747;BME280;70632;52.232;21.038;2023-08-30T04:44:21;99100.22;;;20.53;80.03
75747;BME280;70632;52.232;21.038;2023-08-30T04:46:50;99103.34;;;20.78;79.25
75747;BME280;70632;52.232;21.038;2023-08-30T04:49:17;99114.38;;;21.42;76.26
75747;BME280;70632;52.232;21.038;2023-08-30T04:51:43;99127.97;;;21.23;76.80
75747;BME280;70632;52.232;21.038;2023-08-30T04:54:09;99117.41;;;21.10;77.21
75747;BME280;70632;52.232;21.038;2023-08-30T04:56:35;99116.22;;;21.41;75.50
75747;BME280;70632;52.232;21.038;2023-08-30T04:59:00;99117.53;;;21.28;76.39
75747;BME280;70632;52.232;21.038;2023-08-30T05:01:30;99126.78;;;21.35;75.71
75747;BME280;70632;52.232;21.038;2023-08-30T05:03:55;99132.75;;;21.38;75.66
75747;BME280;70632;52.232;21.038;2023-08-30T05:06:21;99135.13;;;20.85;78.15
75747;BME280;70632;52.232;21.038;2023-08-30T05:08:47;99148.53;;;21.25;76.37
75747;BME280;70632;52.232;21.038;2023-08-30T05:11:13;99147.25;;;20.72;78.68
75747;BME280;70632;52.232;21.038;2023-08-30T05:13:38;99154.50;;;21.10;76.98
75747;BME280;70632;52.232;21.038;2023-08-30T05:16:05;99158.38;;;20.88;78.08
75747;BME280;70632;52.232;21.038;2023-08-30T05:18:31;99170.47;;;20.65;78.42
75747;BME280;70632;52.232;21.038;2023-08-30T05:20:56;99168.63;;;20.84;78.35
75747;BME280;70632;52.232;21.038;2023-08-30T05:23:22;99169.03;;;21.37;75.99
75747;BME280;70632;52.232;21.038;2023-08-30T05:25:48;99171.50;;;21.77;74.25
75747;BME280;70632;52.232;21.038;2023-08-30T05:28:14;99178.34;;;21.81;72.94
75747;BME280;70632;52.232;21.038;2023-08-30T05:30:42;99183.88;;;21.89;73.09
75747;BME280;70632;52.232;21.038;2023-08-30T05:33:07;99184.72;;;21.90;73.43
75747;BME280;70632;52.232;21.038;2023-08-30T05:35:34;99190.22;;;21.71;73.50
75747;BME280;70632;52.232;21.038;2023-08-30T05:37:59;99191.28;;;21.87;71.99
75747;BME280;70632;52.232;21.038;2023-08-30T05:40:25;99189.94;;;21.64;73.40
75747;BME280;70632;52.232;21.038;2023-08-30T05:42:51;99190.44;;;21.31;74.78
75747;BME280;70632;52.232;21.038;2023-08-30T05:45:17;99186.13;;;21.57;74.00
75747;BME280;70632;52.232;21.038;2023-08-30T05:47:42;99187.63;;;21.13;75.62
75747;BME280;70632;52.232;21.038;2023-08-30T05:50:08;99184.88;;;21.03;75.83
75747;BME280;70632;52.232;21.038;2023-08-30T05:52:34;99190.44;;;21.31;74.65
75747;BME280;70632;52.232;21.038;2023-08-30T05:55:00;99194.19;;;21.86;73.32
75747;BME280;70632;52.232;21.038;2023-08-30T05:57:25;99199.53;;;21.59;73.45
75747;BME280;70632;52.232;21.038;2023-08-30T05:59:53;99193.97;;;21.60;74.22
75747;BME280;70632;52.232;21.038;2023-08-30T06:02:18;99200.69;;;21.56;73.83
75747;BME280;70632;52.232;21.038;2023-08-30T06:04:44;99193.63;;;21.82;72.69
75747;BME280;70632;52.232;21.038;2023-08-30T06:07:10;99194.56;;;21.91;72.77
75747;BME280;70632;52.232;21.038;2023-08-30T06:09:36;99193.16;;;21.87;72.59
75747;BME280;70632;52.232;21.038;2023-08-30T06:12:01;99186.28;;;22.02;71.70
75747;BME280;70632;52.232;21.038;2023-08-30T06:14:27;99183.31;;;21.86;72.03
75747;BME280;70632;52.232;21.038;2023-08-30T06:16:53;99178.28;;;21.54;72.83
75747;BME280;70632;52.232;21.038;2023-08-30T06:19:19;99189.47;;;21.22;74.76
75747;BME280;70632;52.232;21.038;2023-08-30T06:21:44;99185.47;;;21.26;74.75
75747;BME280;70632;52.232;21.038;2023-08-30T06:24:10;99187.72;;;21.40;74.08
75747;BME280;70632;52.232;21.038;2023-08-30T06:26:36;99184.63;;;21.82;72.65
75747;BME280;70632;52.232;21.038;2023-08-30T06:29:05;99187.09;;;21.66;73.38
75747;BME280;70632;52.232;21.038;2023-08-30T06:31:30;99182.84;;;22.00;72.07
75747;BME280;70632;52.232;21.038;2023-08-30T06:33:57;99185.25;;;21.66;73.35
75747;BME280;70632;52.232;21.038;2023-08-30T06:36:23;99186.97;;;21.58;73.82
75747;BME280;70632;52.232;21.038;2023-08-30T06:38:49;99185.47;;;21.82;72.66
75747;BME280;70632;52.232;21.038;2023-08-30T06:41:15;99190.84;;;22.02;71.51
75747;BME280;70632;52.232;21.038;2023-08-30T06:43:41;99191.41;;;22.05;71.69
75747;BME280;70632;52.232;21.038;2023-08-30T06:46:06;99196.84;;;22.05;71.52
75747;BME280;70632;52.232;21.038;2023-08-30T06:48:32;99198.59;;;21.87;71.98
75747;BME280;70632;52.232;21.038;2023-08-30T06:50:58;99206.34;;;21.72;72.80
75747;BME280;70632;52.232;21.038;2023-08-30T06:53:27;99191.84;;;21.91;72.14
75747;BME280;70632;52.232;21.038;2023-08-30T06:56:00;99192.34;;;21.77;72.33
75747;BME280;70632;52.232;21.038;2023-08-30T06:58:26;99189.16;;;22.01;71.84
75747;BME280;70632;52.232;21.038;2023-08-30T07:00:52;99195.38;;;22.11;71.99
75747;BME280;70632;52.232;21.038;2023-08-30T07:03:18;99195.09;;;22.14;71.27
75747;BME280;70632;52.232;21.038;2023-08-30T07:05:44;99203.44;;;22.30;70.87
75747;BME280;70632;52.232;21.038;2023-08-30T07:08:10;99205.88;;;22.23;71.47
75747;BME280;70632;52.232;21.038;2023-08-30T07:10:36;99198.19;;;22.19;71.42
75747;BME280;70632;52.232;21.038;2023-08-30T07:13:02;99202.50;;;22.12;71.88
75747;BME280;70632;52.232;21.038;2023-08-30T07:15:27;99206.72;;;22.33;70.99
75747;BME280;70632;52.232;21.038;2023-08-30T07:17:53;99200.63;;;22.22;71.29
75747;BME280;70632;52.232;21.038;2023-08-30T07:20:19;99200.72;;;22.30;71.13
75747;BME280;70632;52.232;21.038;2023-08-30T07:22:45;99204.63;;;21.81;73.30
75747;BME280;70632;52.232;21.038;2023-08-30T07:25:10;99202.88;;;21.89;73.03
75747;BME280;70632;52.232;21.038;2023-08-30T07:27:37;99206.53;;;21.52;75.05
75747;BME280;70632;52.232;21.038;2023-08-30T07:30:03;99199.88;;;22.02;73.42
75747;BME280;70632;52.232;21.038;2023-08-30T07:32:30;99204.31;;;21.37;76.48
75747;BME280;70632;52.232;21.038;2023-08-30T07:34:55;99209.00;;;21.35;76.42
75747;BME280;70632;52.232;21.038;2023-08-30T07:37:21;99199.69;;;21.47;76.07
75747;BME280;70632;52.232;21.038;2023-08-30T07:39:47;99194.69;;;21.53;76.24
75747;BME280;70632;52.232;21.038;2023-08-30T07:42:16;99194.19;;;21.76;74.72
75747;BME280;70632;52.232;21.038;2023-08-30T07:44:42;99195.56;;;21.43;76.29
75747;BME280;70632;52.232;21.038;2023-08-30T07:47:08;99200.00;;;21.54;75.98
75747;BME280;70632;52.232;21.038;2023-08-30T07:49:33;99200.38;;;21.69;75.35
75747;BME280;70632;52.232;21.038;2023-08-30T07:51:59;99200.00;;;21.91;74.30
75747;BME280;70632;52.232;21.038;2023-08-30T07:54:25;99208.31;;;21.80;74.64
75747;BME280;70632;52.232;21.038;2023-08-30T07:56:51;99201.75;;;21.92;74.73
75747;BME280;70632;52.232;21.038;2023-08-30T07:59:16;99203.38;;;22.12;73.56
75747;BME280;70632;52.232;21.038;2023-08-30T08:01:42;99194.91;;;22.15;74.96
75747;BME280;70632;52.232;21.038;2023-08-30T08:04:08;99197.72;;;21.96;75.63
75747;BME280;70632;52.232;21.038;2023-08-30T08:06:33;99202.56;;;22.02;75.71
75747;BME280;70632;52.232;21.038;2023-08-30T08:08:59;99206.88;;;21.10;78.09
75747;BME280;70632;52.232;21.038;2023-08-30T08:11:25;99210.53;;;20.71;80.37
75747;BME280;70632;52.232;21.038;2023-08-30T08:13:51;99205.13;;;20.61;81.23
75747;BME280;70632;52.232;21.038;2023-08-30T08:16:17;99200.72;;;20.79;81.52
75747;BME280;70632;52.232;21.038;2023-08-30T08:18:43;99201.47;;;21.29;82.21
75747;BME280;70632;52.232;21.038;2023-08-30T08:21:09;99193.03;;;21.79;79.05
75747;BME280;70632;52.232;21.038;2023-08-30T08:23:34;99190.59;;;21.85;76.88
75747;BME280;70632;52.232;21.038;2023-08-30T08:26:00;99191.84;;;21.44;77.89
75747;BME280;70632;52.232;21.038;2023-08-30T08:28:26;99188.47;;;21.79;77.68
75747;BME280;70632;52.232;21.038;2023-08-30T08:30:52;99177.31;;;21.92;77.17
75747;BME280;70632;52.232;21.038;2023-08-30T08:33:18;99190.00;;;21.45;79.23
75747;BME280;70632;52.232;21.038;2023-08-30T08:35:44;99176.47;;;21.35;80.48
75747;BME280;70632;52.232;21.038;2023-08-30T08:38:10;99185.25;;;21.66;78.02
75747;BME280;70632;52.232;21.038;2023-08-30T08:40:37;99181.56;;;21.58;78.05
75747;BME280;70632;52.232;21.038;2023-08-30T08:43:05;99190.81;;;21.65;78.05
75747;BME280;70632;52.232;21.038;2023-08-30T08:45:34;99173.25;;;21.59;76.98
75747;BME280;70632;52.232;21.038;2023-08-30T08:48:03;99180.81;;;21.65;76.73
75747;BME280;70632;52.232;21.038;2023-08-30T08:50:29;99182.69;;;21.55;78.27
75747;BME280;70632;52.232;21.038;2023-08-30T08:52:56;99182.94;;;21.71;77.13
75747;BME280;70632;52.232;21.038;2023-08-30T08:55:22;99189.50;;;21.69;79.07
75747;BME280;70632;52.232;21.038;2023-08-30T08:57:48;99188.59;;;21.97;78.86
75747;BME280;70632;52.232;21.038;2023-08-30T09:00:14;99183.16;;;21.87;78.23
75747;BME280;70632;52.232;21.038;2023-08-30T09:02:42;99161.94;;;21.73;77.95
75747;BME280;70632;52.232;21.038;2023-08-30T09:05:08;99167.81;;;21.69;79.80
75747;BME280;70632;52.232;21.038;2023-08-30T09:07:35;99183.97;;;21.61;81.05
75747;BME280;70632;52.232;21.038;2023-08-30T09:10:02;99187.03;;;21.29;81.32
75747;BME280;70632;52.232;21.038;2023-08-30T09:12:32;99179.63;;;21.77;79.54
75747;BME280;70632;52.232;21.038;2023-08-30T09:14:58;99180.38;;;21.70;79.51
75747;BME280;70632;52.232;21.038;2023-08-30T09:17:34;99176.69;;;21.61;76.59
75747;BME280;70632;52.232;21.038;2023-08-30T09:20:07;99168.38;;;21.63;78.33
75747;BME280;70632;52.232;21.038;2023-08-30T09:22:40;99182.03;;;21.34;80.35
75747;BME280;70632;52.232;21.038;2023-08-30T09:25:09;99183.19;;;21.12;81.42
75747;BME280;70632;52.232;21.038;2023-08-30T09:27:36;99182.44;;;21.39;80.21
75747;BME280;70632;52.232;21.038;2023-08-30T09:30:07;99184.75;;;21.34;79.97
75747;BME280;70632;52.232;21.038;2023-08-30T09:32:41;99190.47;;;21.21;80.58
75747;BME280;70632;52.232;21.038;2023-08-30T09:35:08;99189.31;;;21.33;78.28
75747;BME280;70632;52.232;21.038;2023-08-30T09:37:34;99188.63;;;21.12;79.31
75747;BME280;70632;52.232;21.038;2023-08-30T09:40:00;99189.06;;;21.17;79.34
75747;BME280;70632;52.232;21.038;2023-08-30T09:42:26;99184.72;;;21.43;77.17
75747;BME280;70632;52.232;21.038;2023-08-30T09:44:52;99180.75;;;21.38;78.40
75747;BME280;70632;52.232;21.038;2023-08-30T09:47:18;99182.44;;;20.91;80.33
75747;BME280;70632;52.232;21.038;2023-08-30T09:49:45;99183.03;;;20.75;80.37
75747;BME280;70632;52.232;21.038;2023-08-30T09:52:15;99183.28;;;20.63;81.88
75747;BME280;70632;52.232;21.038;2023-08-30T09:54:42;99182.34;;;21.02;79.18
75747;BME280;70632;52.232;21.038;2023-08-30T09:57:10;99191.59;;;20.80;80.39
75747;BME280;70632;52.232;21.038;2023-08-30T09:59:37;99193.03;;;20.94;79.69
75747;BME280;70632;52.232;21.038;2023-08-30T10:02:05;99200.28;;;20.84;80.97
75747;BME280;70632;52.232;21.038;2023-08-30T10:04:31;99198.53;;;20.44;81.30
75747;BME280;70632;52.232;21.038;2023-08-30T10:06:58;99208.38;;;20.55;81.14
75747;BME280;70632;52.232;21.038;2023-08-30T10:09:24;99204.47;;;20.29;82.57
75747;BME280;70632;52.232;21.038;2023-08-30T10:11:50;99203.53;;;20.49;85.09
75747;BME280;70632;52.232;21.038;2023-08-30T10:14:18;99200.56;;;20.62;83.26
75747;BME280;70632;52.232;21.038;2023-08-30T10:16:47;99199.41;;;20.64;81.11
75747;BME280;70632;52.232;21.038;2023-08-30T10:19:21;99197.13;;;20.60;84.18
75747;BME280;70632;52.232;21.038;2023-08-30T10:21:56;99189.41;;;20.45;85.37
75747;BME280;70632;52.232;21.038;2023-08-30T10:24:23;99182.03;;;20.76;82.74
75747;BME280;70632;52.232;21.038;2023-08-30T10:26:50;99185.00;;;20.64;83.24
75747;BME280;70632;52.232;21.038;2023-08-30T10:29:16;99184.88;;;20.75;81.50
75747;BME280;70632;52.232;21.038;2023-08-30T10:31:42;99177.34;;;20.88;81.63
75747;BME280;70632;52.232;21.038;2023-08-30T10:34:16;99173.63;;;21.27;80.65
75747;BME280;70632;52.232;21.038;2023-08-30T10:36:56;99171.88;;;21.07;81.37
75747;BME280;70632;52.232;21.038;2023-08-30T10:39:32;99169.34;;;21.15;79.03
75747;BME280;70632;52.232;21.038;2023-08-30T10:41:59;99167.34;;;21.08;79.32
75747;BME280;70632;52.232;21.038;2023-08-30T10:44:25;99173.34;;;21.01;81.41
75747;BME280;70632;52.232;21.038;2023-08-30T10:46:54;99172.75;;;20.60;81.55
75747;BME280;70632;52.232;21.038;2023-08-30T10:49:21;99174.19;;;20.54;83.01
75747;BME280;70632;52.232;21.038;2023-08-30T10:51:56;99171.75;;;20.80;82.13
75747;BME280;70632;52.232;21.038;2023-08-30T10:54:37;99166.47;;;21.45;78.63
75747;BME280;70632;52.232;21.038;2023-08-30T10:57:13;99180.19;;;21.15;79.32
75747;BME280;70632;52.232;21.038;2023-08-30T10:59:39;99176.75;;;21.23;81.24
75747;BME280;70632;52.232;21.038;2023-08-30T11:02:18;99184.19;;;21.21;80.35
75747;BME280;70632;52.232;21.038;2023-08-30T11:04:59;99186.88;;;20.53;82.29
75747;BME280;70632;52.232;21.038;2023-08-30T11:07:25;99185.56;;;20.48;82.59
75747;BME280;70632;52.232;21.038;2023-08-30T11:09:55;99188.56;;;20.45;82.62
75747;BME280;70632;52.232;21.038;2023-08-30T11:12:21;99196.28;;;20.69;81.37
75747;BME280;70632;52.232;21.038;2023-08-30T11:14:54;99196.84;;;20.63;80.24
75747;BME280;70632;52.232;21.038;2023-08-30T11:17:20;99193.28;;;20.72;81.26
75747;BME280;70632;52.232;21.038;2023-08-30T11:20:11;99196.72;;;20.74;79.77
75747;BME280;70632;52.232;21.038;2023-08-30T11:22:54;99190.16;;;20.76;80.48
75747;BME280;70632;52.232;21.038;2023-08-30T11:25:28;99194.72;;;20.76;80.81
75747;BME280;70632;52.232;21.038;2023-08-30T11:28:02;99186.72;;;21.03;80.17
75747;BME280;70632;52.232;21.038;2023-08-30T11:30:28;99187.63;;;21.13;79.92
75747;BME280;70632;52.232;21.038;2023-08-30T11:32:57;99197.56;;;20.74;80.30
75747;BME280;70632;52.232;21.038;2023-08-30T11:35:23;99198.41;;;20.46;83.32
75747;BME280;70632;52.232;21.038;2023-08-30T11:37:50;99194.28;;;20.71;82.52
75747;BME280;70632;52.232;21.038;2023-08-30T11:40:15;99191.47;;;21.30;79.83
75747;BME280;70632;52.232;21.038;2023-08-30T11:42:43;99182.31;;;20.83;81.85
75747;BME280;70632;52.232;21.038;2023-08-30T11:45:09;99185.75;;;20.85;82.45
75747;BME280;70632;52.232;21.038;2023-08-30T11:47:36;99196.00;;;20.72;81.82
75747;BME280;70632;52.232;21.038;2023-08-30T11:50:02;99187.88;;;20.72;80.80
75747;BME280;70632;52.232;21.038;2023-08-30T11:52:28;99199.28;;;20.66;81.30
75747;BME280;70632;52.232;21.038;2023-08-30T11:54:54;99196.72;;;20.74;81.77
75747;BME280;70632;52.232;21.038;2023-08-30T11:57:20;99203.28;;;20.62;81.21
75747;BME280;70632;52.232;21.038;2023-08-30T11:59:46;99194.44;;;20.88;81.55
75747;BME280;70632;52.232;21.038;2023-08-30T12:02:14;99207.28;;;20.77;80.59
75747;BME280;70632;52.232;21.038;2023-08-30T12:04:41;99214.38;;;20.59;84.02
75747;BME280;70632;52.232;21.038;2023-08-30T12:07:08;99206.06;;;20.41;83.28
75747;BME280;70632;52.232;21.038;2023-08-30T12:09:34;99211.41;;;20.81;81.51
75747;BME280;70632;52.232;21.038;2023-08-30T12:12:09;99205.97;;;20.71;82.50
75747;BME280;70632;52.232;21.038;2023-08-30T12:14:35;99215.69;;;20.93;82.06
75747;BME280;70632;52.232;21.038;2023-08-30T12:17:02;99219.38;;;20.63;82.34
75747;BME280;70632;52.232;21.038;2023-08-30T12:19:28;99211.88;;;21.15;80.56
75747;BME280;70632;52.232;21.038;2023-08-30T12:21:54;99218.97;;;20.87;81.17
75747;BME280;70632;52.232;21.038;2023-08-30T12:24:20;99213.88;;;21.13;80.86
75747;BME280;70632;52.232;21.038;2023-08-30T12:26:46;99209.28;;;21.03;80.70
75747;BME280;70632;52.232;21.038;2023-08-30T12:29:11;99216.28;;;21.35;80.42
75747;BME280;70632;52.232;21.038;2023-08-30T12:31:37;99211.16;;;21.13;81.13
75747;BME280;70632;52.232;21.038;2023-08-30T12:34:03;99209.44;;;21.12;80.39
75747;BME280;70632;52.232;21.038;2023-08-30T12:36:29;99204.75;;;21.14;80.69
75747;BME280;70632;52.232;21.038;2023-08-30T12:38:54;99208.31;;;21.24;80.66
75747;BME280;70632;52.232;21.038;2023-08-30T12:41:20;99197.88;;;21.00;81.19
75747;BME280;70632;52.232;21.038;2023-08-30T12:43:49;99201.28;;;20.83;83.68
75747;BME280;70632;52.232;21.038;2023-08-30T12:46:15;99208.06;;;20.39;84.32
75747;BME280;70632;52.232;21.038;2023-08-30T12:48:41;99200.63;;;20.31;84.05
75747;BME280;70632;52.232;21.038;2023-08-30T12:51:07;99205.13;;;20.21;83.32
75747;BME280;70632;52.232;21.038;2023-08-30T12:53:32;99214.69;;;20.75;81.71
75747;BME280;70632;52.232;21.038;2023-08-30T12:55:59;99215.75;;;20.43;81.85
75747;BME280;70632;52.232;21.038;2023-08-30T12:58:25;99222.50;;;20.59;83.02